createdAt,value
2023-01-13T00:00:18.530Z,95694.56
2023-01-13T00:01:22.611Z,95692.94
2023-01-13T00:02:24.332Z,95692.94
2023-01-13T00:03:26.295Z,95689.44
2023-01-13T00:04:29.344Z,95695.16
2023-01-13T00:05:31.066Z,95699.34
2023-01-13T00:06:33.134Z,95688.81
2023-01-13T00:07:34.870Z,95696.53
2023-01-13T00:08:36.676Z,95690.28
2023-01-13T00:09:39.797Z,95681.63
2023-01-13T00:10:41.565Z,95681.47
2023-01-13T00:11:43.741Z,95686.91
2023-01-13T00:12:45.818Z,95676.84
2023-01-13T00:13:48.257Z,95690.09
2023-01-13T00:14:50.381Z,95678.00
2023-01-13T00:16:04.181Z,95675.69
2023-01-13T00:17:05.950Z,95685.16
2023-01-13T00:18:07.656Z,95679.06
2023-01-13T00:19:09.472Z,95681.47
2023-01-13T00:20:12.125Z,95689.63
2023-01-13T00:21:19.522Z,95685.41
2023-01-13T00:22:23.526Z,95682.88
2023-01-13T00:23:25.238Z,95686.09
2023-01-13T00:24:27.252Z,95680.63
2023-01-13T00:25:29.253Z,95691.06
2023-01-13T00:26:33.717Z,95683.03
2023-01-13T00:27:36.089Z,95681.13
2023-01-13T00:28:38.692Z,95682.53
2023-01-13T00:29:40.564Z,95672.78
2023-01-13T00:30:42.665Z,95679.97
2023-01-13T00:31:44.251Z,95667.34
2023-01-13T00:32:49.004Z,95673.28
2023-01-13T00:33:51.143Z,95664.81
2023-01-13T00:34:53.413Z,95662.78
2023-01-13T00:35:59.066Z,95666.13
2023-01-13T00:37:01.099Z,95662.41
2023-01-13T00:38:03.215Z,95664.03
2023-01-13T00:39:04.960Z,95662.91
2023-01-13T00:40:07.756Z,95650.13
2023-01-13T00:41:11.418Z,95657.94
2023-01-13T00:42:31.882Z,95658.63
2023-01-13T00:43:35.199Z,95653.41
2023-01-13T00:44:37.323Z,95658.16
2023-01-13T00:45:39.549Z,95656.63
2023-01-13T00:46:41.670Z,95652.34
2023-01-13T00:47:43.690Z,95658.84
2023-01-13T00:48:46.288Z,95653.59
2023-01-13T00:49:47.844Z,95646.56
2023-01-13T00:50:57.329Z,95652.59
2023-01-13T00:51:59.048Z,95644.94
2023-01-13T00:53:00.918Z,95632.47
2023-01-13T00:54:02.618Z,95631.06
2023-01-13T00:55:04.617Z,95641.44
2023-01-13T00:56:10.416Z,95641.63
2023-01-13T00:57:12.240Z,95632.66
2023-01-13T00:58:13.963Z,95628.03
2023-01-13T00:59:15.953Z,95636.84
2023-01-13T01:00:18.210Z,95628.56
2023-01-13T01:01:22.353Z,95633.63
2023-01-13T01:02:24.254Z,95626.34
2023-01-13T01:03:26.532Z,95624.75
2023-01-13T01:04:28.327Z,95623.47
2023-01-13T01:05:30.036Z,95622.31
2023-01-13T01:06:31.981Z,95618.03
2023-01-13T01:07:33.719Z,95625.03
2023-01-13T01:08:35.908Z,95615.88
2023-01-13T01:09:39.654Z,95609.22
2023-01-13T01:10:41.469Z,95605.53
2023-01-13T01:11:43.979Z,95610.72
2023-01-13T01:12:45.529Z,95614.41
2023-01-13T01:13:48.113Z,95614.53
2023-01-13T01:14:49.988Z,95624.00
2023-01-13T01:15:51.783Z,95616.94
2023-01-13T01:16:54.669Z,95616.44
2023-01-13T01:17:56.457Z,95614.22
2023-01-13T01:18:58.702Z,95619.06
2023-01-13T01:20:00.427Z,95617.00
2023-01-13T01:21:02.366Z,95614.56
2023-01-13T01:22:04.422Z,95613.97
2023-01-13T01:23:06.476Z,95613.16
2023-01-13T01:24:09.754Z,95616.03
2023-01-13T01:25:11.440Z,95614.88
2023-01-13T01:26:15.509Z,95611.06
2023-01-13T01:27:17.187Z,95612.53
2023-01-13T01:28:20.702Z,95602.00
2023-01-13T01:29:22.686Z,95599.63
2023-01-13T01:30:24.576Z,95601.06
2023-01-13T01:31:29.004Z,95601.06
2023-01-13T01:32:31.038Z,95601.25
2023-01-13T01:33:32.813Z,95598.50
2023-01-13T01:34:34.656Z,95595.19
2023-01-13T01:35:40.033Z,95593.38
2023-01-13T01:36:41.947Z,95605.25
2023-01-13T01:37:44.120Z,95593.56
2023-01-13T01:38:47.127Z,95602.38
2023-01-13T01:39:48.867Z,95602.22
2023-01-13T01:40:50.625Z,95596.44
2023-01-13T01:42:15.364Z,95585.91
2023-01-13T01:43:41.211Z,95600.28
2023-01-13T01:44:43.331Z,95593.56
2023-01-13T01:45:45.130Z,95602.38
2023-01-13T01:46:46.807Z,95592.31
2023-01-13T01:47:51.760Z,95595.31
2023-01-13T01:48:53.889Z,95591.50
2023-01-13T01:49:56.741Z,95594.38
2023-01-13T01:50:58.718Z,95588.66
2023-01-13T01:52:08.016Z,95584.94
2023-01-13T01:53:13.701Z,95586.25
2023-01-13T01:54:26.483Z,95588.16
2023-01-13T01:55:31.568Z,95583.22
2023-01-13T01:56:33.986Z,95574.88
2023-01-13T01:57:54.872Z,95588.31
2023-01-13T01:58:56.690Z,95581.59
2023-01-13T02:00:00.955Z,95582.38
2023-01-13T02:01:02.926Z,95579.47
2023-01-13T02:02:29.171Z,95580.09
2023-01-13T02:03:30.843Z,95573.22
2023-01-13T02:04:36.575Z,95583.94
2023-01-13T02:05:38.954Z,95589.25
2023-01-13T02:06:41.092Z,95588.75
2023-01-13T02:07:43.587Z,95592.28
2023-01-13T02:08:45.066Z,95590.53
2023-01-13T02:09:47.237Z,95571.00
2023-01-13T02:10:53.367Z,95581.59
2023-01-13T02:12:13.576Z,95573.84
2023-01-13T02:13:15.165Z,95588.75
2023-01-13T02:14:17.343Z,95599.63
2023-01-13T02:15:23.264Z,95586.22
2023-01-13T02:16:24.904Z,95575.78
2023-01-13T02:18:04.075Z,95584.31
2023-01-13T02:19:30.656Z,95572.72
2023-01-13T02:20:55.227Z,95580.28
2023-01-13T02:22:27.667Z,95577.75
2023-01-13T02:23:57.606Z,95579.47
2023-01-13T02:25:26.572Z,95581.88
2023-01-13T02:26:52.373Z,95574.66
2023-01-13T02:28:11.332Z,95582.84
2023-01-13T02:29:37.657Z,95575.66
2023-01-13T02:31:28.635Z,95579.47
2023-01-13T02:32:34.468Z,95572.78
2023-01-13T02:33:51.293Z,95577.38
2023-01-13T02:35:01.549Z,95566.53
2023-01-13T02:36:18.280Z,95568.13
2023-01-13T02:37:28.613Z,95555.00
2023-01-13T02:38:34.760Z,95557.94
2023-01-13T02:39:41.910Z,95565.44
2023-01-13T02:40:56.800Z,95565.09
2023-01-13T02:42:26.524Z,95559.19
2023-01-13T02:43:48.307Z,95560.00
2023-01-13T02:45:02.895Z,95548.97
2023-01-13T02:46:30.163Z,95564.31
2023-01-13T02:47:36.101Z,95555.66
2023-01-13T02:48:38.527Z,95549.91
2023-01-13T02:49:45.392Z,95554.41
2023-01-13T02:51:17.528Z,95554.09
2023-01-13T02:52:42.957Z,95548.16
2023-01-13T02:54:04.046Z,95539.97
2023-01-13T02:55:28.723Z,95545.41
2023-01-13T02:56:31.833Z,95546.38
2023-01-13T02:57:34.715Z,95543.66
2023-01-13T02:58:37.528Z,95538.22
2023-01-13T02:59:40.297Z,95550.56
2023-01-13T03:00:42.333Z,95545.13
2023-01-13T03:01:44.044Z,95547.19
2023-01-13T03:02:47.997Z,95539.50
2023-01-13T03:03:50.127Z,95535.69
2023-01-13T03:05:02.159Z,95538.88
2023-01-13T03:06:29.962Z,95538.38
2023-01-13T03:08:09.159Z,95541.13
2023-01-13T03:09:22.953Z,95540.13
2023-01-13T03:10:39.901Z,95542.69
2023-01-13T03:12:10.692Z,95539.63
2023-01-13T03:13:46.903Z,95530.34
2023-01-13T03:14:59.852Z,95540.78
2023-01-13T03:16:11.089Z,95538.72
2023-01-13T03:17:22.487Z,95546.38
2023-01-13T03:18:43.019Z,95534.19
2023-01-13T03:19:52.225Z,95529.41
2023-01-13T03:21:27.323Z,95529.88
2023-01-13T03:22:39.887Z,95525.59
2023-01-13T03:23:49.698Z,95521.91
2023-01-13T03:25:14.227Z,95527.00
2023-01-13T03:26:40.400Z,95520.63
2023-01-13T03:28:13.514Z,95522.88
2023-01-13T03:29:22.657Z,95515.84
2023-01-13T03:30:34.435Z,95527.22
2023-01-13T03:31:41.247Z,95528.81
2023-01-13T03:32:45.444Z,95536.31
2023-01-13T03:33:55.820Z,95533.59
2023-01-13T03:35:05.009Z,95533.25
2023-01-13T03:36:09.484Z,95537.28
2023-01-13T03:37:12.789Z,95528.31
2023-01-13T03:38:21.123Z,95532.78
2023-01-13T03:39:28.027Z,95537.91
2023-01-13T03:40:33.817Z,95530.38
2023-01-13T03:41:39.190Z,95539.03
2023-01-13T03:42:41.977Z,95530.88
2023-01-13T03:44:12.481Z,95528.16
2023-01-13T03:45:17.729Z,95521.78
2023-01-13T03:47:04.460Z,95517.44
2023-01-13T03:48:09.086Z,95503.84
2023-01-13T03:49:14.069Z,95512.94
2023-01-13T03:50:21.959Z,95513.75
2023-01-13T03:51:25.253Z,95499.69
2023-01-13T03:52:31.910Z,95509.44
2023-01-13T03:53:37.849Z,95519.50
2023-01-13T03:54:48.453Z,95504.97
2023-01-13T03:55:58.167Z,95501.75
2023-01-13T03:57:04.117Z,95509.59
2023-01-13T03:58:10.441Z,95512.00
2023-01-13T03:59:17.511Z,95509.78
2023-01-13T04:00:23.673Z,95506.72
2023-01-13T04:01:29.576Z,95506.25
2023-01-13T04:02:47.361Z,95510.59
2023-01-13T04:04:05.613Z,95515.06
2023-01-13T04:05:09.374Z,95502.25
2023-01-13T04:06:21.473Z,95502.06
2023-01-13T04:07:25.911Z,95509.31
2023-01-13T04:08:28.321Z,95513.31
2023-01-13T04:09:48.096Z,95518.59
2023-01-13T04:10:53.723Z,95508.66
2023-01-13T04:12:01.649Z,95504.50
2023-01-13T04:13:07.016Z,95505.78
2023-01-13T04:14:10.637Z,95513.63
2023-01-13T04:15:12.324Z,95508.81
2023-01-13T04:16:14.037Z,95503.88
2023-01-13T04:17:16.257Z,95498.41
2023-01-13T04:18:28.602Z,95504.03
2023-01-13T04:19:31.267Z,95511.06
2023-01-13T04:20:32.872Z,95497.63
2023-01-13T04:21:35.473Z,95495.38
2023-01-13T04:22:37.107Z,95505.78
2023-01-13T04:23:38.771Z,95497.31
2023-01-13T04:24:40.361Z,95504.66
2023-01-13T04:25:42.919Z,95505.78
2023-01-13T04:26:44.366Z,95497.63
2023-01-13T04:27:45.961Z,95503.38
2023-01-13T04:28:47.711Z,95495.38
2023-01-13T04:29:49.242Z,95489.28
2023-01-13T04:30:50.870Z,95496.19
2023-01-13T04:31:52.511Z,95496.81
2023-01-13T04:32:54.108Z,95498.25
2023-01-13T04:33:55.822Z,95492.50
2023-01-13T04:34:57.882Z,95488.16
2023-01-13T04:35:59.560Z,95488.81
2023-01-13T04:37:01.114Z,95492.66
2023-01-13T04:38:04.357Z,95483.50
2023-01-13T04:39:06.001Z,95482.88
2023-01-13T04:40:08.360Z,95486.09
2023-01-13T04:41:09.960Z,95477.94
2023-01-13T04:42:11.521Z,95477.28
2023-01-13T04:43:15.591Z,95480.47
2023-01-13T04:44:17.235Z,95480.66
2023-01-13T04:45:18.865Z,95484.50
2023-01-13T04:46:20.572Z,95477.75
2023-01-13T04:47:22.458Z,95481.78
2023-01-13T04:48:24.034Z,95470.25
2023-01-13T04:49:25.720Z,95477.44
2023-01-13T04:50:27.782Z,95473.28
2023-01-13T04:51:29.369Z,95478.88
2023-01-13T04:52:31.070Z,95475.34
2023-01-13T04:53:32.620Z,95472.31
2023-01-13T04:54:34.288Z,95466.72
2023-01-13T04:55:35.931Z,95484.00
2023-01-13T04:56:37.525Z,95471.84
2023-01-13T04:57:39.158Z,95477.59
2023-01-13T04:58:40.751Z,95490.22
2023-01-13T04:59:42.473Z,95487.34
2023-01-13T05:00:44.119Z,95481.44
2023-01-13T05:01:45.870Z,95480.00
2023-01-13T05:02:50.102Z,95479.50
2023-01-13T05:03:51.730Z,95480.63
2023-01-13T05:04:53.424Z,95487.03
2023-01-13T05:05:55.023Z,95473.88
2023-01-13T05:06:56.737Z,95481.25
2023-01-13T05:07:58.542Z,95470.53
2023-01-13T05:09:00.113Z,95482.22
2023-01-13T05:10:01.977Z,95478.88
2023-01-13T05:11:26.286Z,95487.19
2023-01-13T05:12:46.522Z,95484.31
2023-01-13T05:14:06.503Z,95487.19
2023-01-13T05:15:28.438Z,95486.38
2023-01-13T05:16:48.321Z,95484.94
2023-01-13T05:17:50.345Z,95482.88
2023-01-13T05:18:51.939Z,95481.59
2023-01-13T05:19:53.561Z,95486.53
2023-01-13T05:20:55.152Z,95477.41
2023-01-13T05:22:16.408Z,95474.53
2023-01-13T05:23:36.609Z,95486.22
2023-01-13T05:24:56.845Z,95471.31
2023-01-13T05:25:58.511Z,95481.06
2023-01-13T05:27:00.149Z,95476.25
2023-01-13T05:28:01.773Z,95479.16
2023-01-13T05:29:03.373Z,95468.25
2023-01-13T05:30:06.084Z,95471.47
2023-01-13T05:31:07.783Z,95477.53
2023-01-13T05:32:09.462Z,95477.72
2023-01-13T05:33:12.293Z,95482.69
2023-01-13T05:34:13.943Z,95472.91
2023-01-13T05:35:16.153Z,95466.81
2023-01-13T05:36:18.526Z,95466.34
2023-01-13T05:37:20.157Z,95472.75
2023-01-13T05:38:21.851Z,95474.53
2023-01-13T05:39:23.488Z,95471.81
2023-01-13T05:40:43.775Z,95463.63
2023-01-13T05:42:03.957Z,95464.56
2023-01-13T05:43:19.808Z,95469.22
2023-01-13T05:44:21.406Z,95467.47
2023-01-13T05:45:23.456Z,95466.84
2023-01-13T05:46:25.186Z,95466.50
2023-01-13T05:47:26.814Z,95472.59
2023-01-13T05:48:32.214Z,95476.91
2023-01-13T05:49:33.868Z,95469.72
2023-01-13T05:50:35.418Z,95475.34
2023-01-13T05:51:39.873Z,95478.06
2023-01-13T05:52:41.547Z,95471.50
2023-01-13T05:53:43.152Z,95473.75
2023-01-13T05:54:44.747Z,95466.69
2023-01-13T05:55:46.748Z,95472.28
2023-01-13T05:56:48.494Z,95483.84
2023-01-13T05:57:50.062Z,95482.22
2023-01-13T05:58:51.561Z,95480.63
2023-01-13T05:59:53.174Z,95475.97
2023-01-13T06:01:02.951Z,95476.63
2023-01-13T06:02:04.649Z,95484.47
2023-01-13T06:03:06.476Z,95479.03
2023-01-13T06:04:08.068Z,95473.91
2023-01-13T06:05:09.683Z,95482.56
2023-01-13T06:06:11.312Z,95481.94
2023-01-13T06:07:12.920Z,95479.53
2023-01-13T06:08:14.914Z,95479.03
2023-01-13T06:09:16.593Z,95479.66
2023-01-13T06:10:18.243Z,95482.56
2023-01-13T06:11:19.830Z,95484.47
2023-01-13T06:12:21.475Z,95484.97
2023-01-13T06:13:25.179Z,95484.97
2023-01-13T06:14:39.890Z,95482.72
2023-01-13T06:15:41.502Z,95489.59
2023-01-13T06:16:43.190Z,95502.72
2023-01-13T06:17:44.816Z,95497.94
2023-01-13T06:18:46.401Z,95495.38
2023-01-13T06:19:48.027Z,95502.91
2023-01-13T06:20:49.590Z,95500.81
2023-01-13T06:21:51.213Z,95495.38
2023-01-13T06:22:53.571Z,95497.78
2023-01-13T06:23:55.164Z,95496.97
2023-01-13T06:24:56.744Z,95489.75
2023-01-13T06:26:07.988Z,95484.97
2023-01-13T06:27:10.006Z,95484.00
2023-01-13T06:28:11.638Z,95492.81
2023-01-13T06:29:15.000Z,95488.31
2023-01-13T06:30:17.497Z,95480.94
2023-01-13T06:31:19.000Z,95491.53
2023-01-13T06:32:24.626Z,95497.59
2023-01-13T06:33:32.837Z,95485.59
2023-01-13T06:34:35.612Z,95495.69
2023-01-13T06:35:37.955Z,95500.81
2023-01-13T06:36:46.510Z,95496.16
2023-01-13T06:37:50.259Z,95483.66
2023-01-13T06:38:54.868Z,95503.22
2023-01-13T06:39:58.555Z,95489.91
2023-01-13T06:41:00.147Z,95488.63
2023-01-13T06:42:21.849Z,95490.09
2023-01-13T06:43:23.484Z,95488.63
2023-01-13T06:44:25.119Z,95491.19
2023-01-13T06:45:27.651Z,95500.00
2023-01-13T06:46:29.189Z,95496.94
2023-01-13T06:47:31.500Z,95488.63
2023-01-13T06:48:35.191Z,95488.63
2023-01-13T06:49:37.002Z,95498.88
2023-01-13T06:50:38.934Z,95503.69
2023-01-13T06:51:40.493Z,95511.19
2023-01-13T06:52:42.083Z,95491.66
2023-01-13T06:53:43.704Z,95489.56
2023-01-13T06:54:45.289Z,95489.25
2023-01-13T06:55:47.018Z,95499.34
2023-01-13T06:56:48.615Z,95498.38
2023-01-13T06:57:52.202Z,95498.06
2023-01-13T06:58:53.820Z,95496.94
2023-01-13T06:59:55.439Z,95501.91
2023-01-13T07:01:00.619Z,95483.00
2023-01-13T07:02:02.910Z,95479.78
2023-01-13T07:03:07.220Z,95491.34
2023-01-13T07:04:08.935Z,95492.94
2023-01-13T07:05:10.922Z,95478.34
2023-01-13T07:06:12.498Z,95495.66
2023-01-13T07:07:14.282Z,95488.94
2023-01-13T07:08:15.843Z,95478.03
2023-01-13T07:09:17.459Z,95481.38
2023-01-13T07:10:22.228Z,95488.25
2023-01-13T07:11:24.961Z,95490.03
2023-01-13T07:12:26.606Z,95477.06
2023-01-13T07:13:46.870Z,95492.47
2023-01-13T07:15:07.144Z,95481.06
2023-01-13T07:16:10.013Z,95481.56
2023-01-13T07:17:11.774Z,95483.63
2023-01-13T07:18:13.379Z,95493.25
2023-01-13T07:19:15.887Z,95483.00
2023-01-13T07:20:17.422Z,95487.31
2023-01-13T07:21:20.058Z,95481.06
2023-01-13T07:22:21.708Z,95488.13
2023-01-13T07:23:24.236Z,95488.25
2023-01-13T07:24:25.805Z,95488.25
2023-01-13T07:25:27.471Z,95486.22
2023-01-13T07:26:29.066Z,95491.78
2023-01-13T07:27:30.699Z,95481.69
2023-01-13T07:28:32.533Z,95474.50
2023-01-13T07:29:34.127Z,95485.09
2023-01-13T07:30:35.757Z,95479.97
2023-01-13T07:31:37.507Z,95486.66
2023-01-13T07:32:39.447Z,95477.56
2023-01-13T07:33:41.075Z,95482.38
2023-01-13T07:34:42.672Z,95478.34
2023-01-13T07:35:45.062Z,95472.28
2023-01-13T07:36:46.670Z,95485.69
2023-01-13T07:37:48.721Z,95474.19
2023-01-13T07:38:50.318Z,95481.41
2023-01-13T07:39:51.954Z,95489.88
2023-01-13T07:40:53.566Z,95484.59
2023-01-13T07:42:13.888Z,95483.81
2023-01-13T07:43:33.939Z,95494.22
2023-01-13T07:44:35.645Z,95495.00
2023-01-13T07:45:37.303Z,95498.38
2023-01-13T07:46:39.127Z,95497.09
2023-01-13T07:47:40.900Z,95491.69
2023-01-13T07:48:42.628Z,95492.59
2023-01-13T07:49:44.276Z,95500.94
2023-01-13T07:50:45.928Z,95504.16
2023-01-13T07:51:47.615Z,95504.47
2023-01-13T07:52:50.453Z,95503.66
2023-01-13T07:53:52.031Z,95492.78
2023-01-13T07:54:53.634Z,95502.69
2023-01-13T07:55:56.907Z,95505.09
2023-01-13T07:56:58.578Z,95488.78
2023-01-13T07:58:00.255Z,95496.63
2023-01-13T07:59:01.960Z,95496.44
2023-01-13T08:00:05.182Z,95501.91
2023-01-13T08:01:12.170Z,95508.94
2023-01-13T08:02:14.071Z,95500.59
2023-01-13T08:03:15.857Z,95502.66
2023-01-13T08:04:17.439Z,95516.28
2023-01-13T08:05:19.087Z,95507.78
2023-01-13T08:06:20.701Z,95507.19
2023-01-13T08:07:22.278Z,95510.19
2023-01-13T08:08:23.988Z,95512.94
2023-01-13T08:09:25.636Z,95510.84
2023-01-13T08:10:27.313Z,95515.50
2023-01-13T08:11:28.858Z,95511.00
2023-01-13T08:12:53.787Z,95519.97
2023-01-13T08:13:58.821Z,95513.56
2023-01-13T08:15:00.433Z,95528.00
2023-01-13T08:16:10.247Z,95513.91
2023-01-13T08:17:11.897Z,95512.94
2023-01-13T08:18:13.782Z,95516.13
2023-01-13T08:19:15.472Z,95521.59
2023-01-13T08:20:17.129Z,95518.41
2023-01-13T08:21:18.725Z,95510.72
2023-01-13T08:22:20.334Z,95508.47
2023-01-13T08:23:22.934Z,95514.09
2023-01-13T08:24:24.461Z,95510.88
2023-01-13T08:25:27.423Z,95512.47
2023-01-13T08:26:28.999Z,95514.56
2023-01-13T08:27:30.595Z,95519.22
2023-01-13T08:28:32.509Z,95520.00
2023-01-13T08:29:34.107Z,95514.56
2023-01-13T08:30:35.816Z,95520.13
2023-01-13T08:31:37.454Z,95531.50
2023-01-13T08:32:39.046Z,95527.34
2023-01-13T08:33:40.676Z,95530.25
2023-01-13T08:34:42.288Z,95526.22
2023-01-13T08:35:43.933Z,95529.13
2023-01-13T08:36:45.529Z,95535.22
2023-01-13T08:37:47.923Z,95536.97
2023-01-13T08:38:49.597Z,95524.94
2023-01-13T08:39:51.209Z,95524.94
2023-01-13T08:40:52.964Z,95530.41
2023-01-13T08:41:58.404Z,95525.91
2023-01-13T08:43:00.581Z,95531.03
2023-01-13T08:44:02.215Z,95532.47
2023-01-13T08:45:04.609Z,95531.34
2023-01-13T08:46:06.714Z,95536.78
2023-01-13T08:47:08.408Z,95537.91
2023-01-13T08:48:10.088Z,95525.69
2023-01-13T08:49:11.716Z,95534.19
2023-01-13T08:50:14.438Z,95530.84
2023-01-13T08:51:16.060Z,95536.09
2023-01-13T08:52:17.714Z,95530.66
2023-01-13T08:53:20.090Z,95527.28
2023-01-13T08:54:21.745Z,95526.47
2023-01-13T08:55:23.381Z,95536.59
2023-01-13T08:56:25.051Z,95545.09
2023-01-13T08:57:26.734Z,95525.69
2023-01-13T08:58:28.561Z,95545.78
2023-01-13T08:59:30.341Z,95536.63
2023-01-13T09:00:31.953Z,95537.41
2023-01-13T09:01:33.999Z,95530.53
2023-01-13T09:02:35.751Z,95538.03
2023-01-13T09:03:39.080Z,95540.78
2023-01-13T09:04:40.821Z,95527.31
2023-01-13T09:05:42.540Z,95536.91
2023-01-13T09:06:44.848Z,95535.19
2023-01-13T09:07:46.464Z,95533.59
2023-01-13T09:08:48.111Z,95525.69
2023-01-13T09:09:49.777Z,95537.66
2023-01-13T09:10:51.793Z,95535.44
2023-01-13T09:12:12.397Z,95527.88
2023-01-13T09:13:14.528Z,95528.66
2023-01-13T09:14:20.817Z,95543.81
2023-01-13T09:15:22.487Z,95530.56
2023-01-13T09:16:24.122Z,95529.81
2023-01-13T09:17:25.991Z,95532.56
2023-01-13T09:18:27.628Z,95526.97
2023-01-13T09:19:29.653Z,95527.78
2023-01-13T09:20:31.279Z,95515.69
2023-01-13T09:21:32.938Z,95517.59
2023-01-13T09:22:36.362Z,95524.84
2023-01-13T09:23:37.959Z,95527.34
2023-01-13T09:24:39.584Z,95526.78
2023-01-13T09:25:41.318Z,95524.34
2023-01-13T09:26:42.925Z,95534.72
2023-01-13T09:27:44.504Z,95526.38
2023-01-13T09:28:46.124Z,95524.41
2023-01-13T09:29:47.877Z,95545.31
2023-01-13T09:30:49.518Z,95544.31
2023-01-13T09:31:51.145Z,95533.34
2023-01-13T09:33:12.775Z,95543.13
2023-01-13T09:34:35.461Z,95530.91
2023-01-13T09:35:37.131Z,95543.78
2023-01-13T09:36:38.966Z,95551.63
2023-01-13T09:37:41.369Z,95544.69
2023-01-13T09:38:43.020Z,95536.22
2023-01-13T09:39:44.640Z,95533.69
2023-01-13T09:40:48.234Z,95543.28
2023-01-13T09:42:09.624Z,95539.84
2023-01-13T09:43:49.597Z,95532.91
2023-01-13T09:45:08.865Z,95527.53
2023-01-13T09:46:44.054Z,95530.78
2023-01-13T09:47:58.124Z,95545.09
2023-01-13T09:49:00.206Z,95532.69
2023-01-13T09:50:26.967Z,95544.09
2023-01-13T09:51:30.820Z,95545.88
2023-01-13T09:52:32.531Z,95541.31
2023-01-13T09:53:38.666Z,95557.41
2023-01-13T09:54:43.366Z,95541.41
2023-01-13T09:55:45.609Z,95535.34
2023-01-13T09:56:47.513Z,95528.56
2023-01-13T09:57:49.113Z,95528.28
2023-01-13T09:58:50.751Z,95539.78
2023-01-13T09:59:52.347Z,95528.19
2023-01-13T10:01:19.047Z,95530.97
2023-01-13T10:02:39.707Z,95537.00
2023-01-13T10:03:41.415Z,95529.94
2023-01-13T10:04:43.134Z,95522.81
2023-01-13T10:05:52.055Z,95537.56
2023-01-13T10:06:58.057Z,95531.09
2023-01-13T10:08:05.231Z,95532.41
2023-01-13T10:09:13.655Z,95532.66
2023-01-13T10:10:40.537Z,95536.09
2023-01-13T10:12:02.254Z,95518.81
2023-01-13T10:13:14.242Z,95527.63
2023-01-13T10:14:19.270Z,95513.38
2023-01-13T10:15:23.111Z,95541.78
2023-01-13T10:16:41.961Z,95534.97
2023-01-13T10:17:51.666Z,95526.41
2023-01-13T10:19:06.892Z,95535.91
2023-01-13T10:20:27.912Z,95527.53
2023-01-13T10:21:41.654Z,95526.59
2023-01-13T10:22:52.078Z,95521.84
2023-01-13T10:24:01.706Z,95551.22
2023-01-13T10:25:20.420Z,95531.38
2023-01-13T10:26:40.515Z,95541.63
2023-01-13T10:27:43.817Z,95536.50
2023-01-13T10:28:52.098Z,95538.28
2023-01-13T10:29:53.675Z,95545.03
2023-01-13T10:30:55.356Z,95524.38
2023-01-13T10:31:59.233Z,95541.38
2023-01-13T10:33:17.384Z,95545.16
2023-01-13T10:34:20.521Z,95533.13
2023-01-13T10:35:50.977Z,95540.31
2023-01-13T10:37:03.107Z,95545.66
2023-01-13T10:38:04.760Z,95539.66
2023-01-13T10:39:15.872Z,95541.03
2023-01-13T10:40:18.687Z,95527.72
2023-01-13T10:41:25.590Z,95532.59
2023-01-13T10:42:27.228Z,95537.44
2023-01-13T10:43:29.946Z,95525.44
2023-01-13T10:44:31.945Z,95526.63
2023-01-13T10:45:33.604Z,95522.09
2023-01-13T10:46:51.294Z,95530.25
2023-01-13T10:48:06.791Z,95528.47
2023-01-13T10:49:36.328Z,95535.91
2023-01-13T10:50:38.592Z,95532.56
2023-01-13T10:51:40.184Z,95527.91
2023-01-13T10:52:56.808Z,95520.84
2023-01-13T10:54:00.578Z,95517.50
2023-01-13T10:55:02.483Z,95532.06
2023-01-13T10:56:05.630Z,95526.81
2023-01-13T10:57:35.948Z,95532.44
2023-01-13T10:58:37.589Z,95523.50
2023-01-13T10:59:39.174Z,95523.56
2023-01-13T11:00:40.836Z,95527.25
2023-01-13T11:02:13.001Z,95524.13
2023-01-13T11:03:22.350Z,95520.38
2023-01-13T11:04:39.306Z,95521.75
2023-01-13T11:05:48.333Z,95524.59
2023-01-13T11:06:49.943Z,95517.28
2023-01-13T11:07:54.483Z,95520.25
2023-01-13T11:08:58.444Z,95512.13
2023-01-13T11:10:08.941Z,95508.81
2023-01-13T11:11:27.971Z,95509.47
2023-01-13T11:12:34.191Z,95510.28
2023-01-13T11:14:01.744Z,95517.91
2023-01-13T11:15:07.740Z,95508.59
2023-01-13T11:16:16.697Z,95494.44
2023-01-13T11:17:27.546Z,95525.91
2023-01-13T11:18:32.290Z,95521.72
2023-01-13T11:19:34.644Z,95505.81
2023-01-13T11:20:41.287Z,95509.34
2023-01-13T11:22:02.932Z,95517.66
2023-01-13T11:23:13.522Z,95512.75
2023-01-13T11:24:24.544Z,95529.13
2023-01-13T11:25:42.086Z,95505.53
2023-01-13T11:27:23.948Z,95522.06
2023-01-13T11:28:36.378Z,95517.25
2023-01-13T11:30:12.277Z,95512.06
2023-01-13T11:31:22.709Z,95523.28
2023-01-13T11:32:24.925Z,95523.75
2023-01-13T11:33:30.481Z,95519.16
2023-01-13T11:34:40.631Z,95512.06
2023-01-13T11:35:46.160Z,95519.28
2023-01-13T11:36:51.727Z,95521.84
2023-01-13T11:38:04.648Z,95516.56
2023-01-13T11:39:19.154Z,95513.81
2023-01-13T11:40:48.827Z,95518.16
2023-01-13T11:42:16.202Z,95517.69
2023-01-13T11:43:28.694Z,95520.63
2023-01-13T11:44:47.034Z,95514.34
2023-01-13T11:45:55.284Z,95504.72
2023-01-13T11:46:56.944Z,95515.91
2023-01-13T11:48:00.363Z,95515.56
2023-01-13T11:49:03.678Z,95521.38
2023-01-13T11:50:15.136Z,95508.38
2023-01-13T11:51:34.746Z,95497.94
2023-01-13T11:52:45.425Z,95509.50
2023-01-13T11:53:53.243Z,95510.25
2023-01-13T11:55:16.401Z,95509.53
2023-01-13T11:56:57.467Z,95504.50
2023-01-13T11:58:28.974Z,95499.44
2023-01-13T11:59:40.970Z,95505.66
2023-01-13T12:00:45.862Z,95500.75
2023-01-13T12:02:11.846Z,95498.47
2023-01-13T12:03:19.173Z,95496.97
2023-01-13T12:04:25.178Z,95507.09
2023-01-13T12:05:42.772Z,95494.69
2023-01-13T12:06:46.044Z,95504.91
2023-01-13T12:08:10.907Z,95503.06
2023-01-13T12:09:57.599Z,95500.00
2023-01-13T12:10:59.265Z,95509.06
2023-01-13T12:12:20.028Z,95507.41
2023-01-13T12:13:27.473Z,95509.00
2023-01-13T12:15:07.018Z,95505.66
2023-01-13T12:16:15.019Z,95507.00
2023-01-13T12:17:34.951Z,95508.13
2023-01-13T12:19:07.740Z,95505.16
2023-01-13T12:20:23.662Z,95508.75
2023-01-13T12:21:38.843Z,95499.28
2023-01-13T12:22:41.695Z,95511.13
2023-01-13T12:24:04.706Z,95503.28
2023-01-13T12:25:15.648Z,95500.44
2023-01-13T12:26:17.597Z,95497.78
2023-01-13T12:27:27.230Z,95489.81
2023-01-13T12:28:41.617Z,95491.28
2023-01-13T12:29:44.695Z,95491.84
2023-01-13T12:30:52.050Z,95492.28
2023-01-13T12:31:53.992Z,95489.63
2023-01-13T12:33:00.793Z,95494.47
2023-01-13T12:34:32.358Z,95502.81
2023-01-13T12:35:39.023Z,95487.97
2023-01-13T12:36:59.235Z,95484.47
2023-01-13T12:38:13.679Z,95493.38
2023-01-13T12:39:18.432Z,95496.13
2023-01-13T12:40:20.153Z,95487.84
2023-01-13T12:41:27.622Z,95496.66
2023-01-13T12:42:52.573Z,95487.41
2023-01-13T12:44:12.855Z,95487.06
2023-01-13T12:45:14.458Z,95491.06
2023-01-13T12:46:19.081Z,95499.97
2023-01-13T12:47:53.237Z,95499.84
2023-01-13T12:48:56.657Z,95507.00
2023-01-13T12:50:26.153Z,95514.56
2023-01-13T12:51:52.600Z,95509.00
2023-01-13T12:53:01.564Z,95503.72
2023-01-13T12:54:32.164Z,95517.03
2023-01-13T12:55:35.044Z,95518.22
2023-01-13T12:56:42.211Z,95514.63
2023-01-13T12:57:55.739Z,95512.06
2023-01-13T12:59:19.419Z,95517.13
2023-01-13T13:00:21.144Z,95511.81
2023-01-13T13:01:35.355Z,95512.88
2023-01-13T13:02:41.162Z,95508.06
2023-01-13T13:04:21.636Z,95498.50
2023-01-13T13:05:23.198Z,95515.31
2023-01-13T13:06:29.542Z,95500.06
2023-01-13T13:07:31.085Z,95508.78
2023-01-13T13:08:45.218Z,95499.94